^^
Station Historical Data
Daily Summary for January 13, 2018 Units:  English    Metric   Both
« Previous Day
Next Day »
Daily Weekly Monthly Yearly Custom
  High: Low: Average:
Temperature: TemperatureF °F 60.3 °F 76 °F
Dew Point: DewpointF °F 43.9 °F 51.3 °F
Humidity: Humidity% 21% 48%
Wind Speed: WindSpeedMPHmph 0.0mph 1.2mph
Wind Gust: WindSpeedGustMPHmph - -
Wind- - ESE
Pressure: PressureIn in 29.63 in -
Precipitation: 0.05 in    
Historical Graphs
 
 
Tabular Data for January 13, 2018
Time Temperature Dew Point Pressure Wind Wind Speed Wind Gust Humidity Rainfall Rate (Hourly) solar Conditions
TemperatureF °F DewpointF °F PressureIn in Calm     Humidity% HourlyPrecipIn in SolarRadiationWatts/m^2 W/m2 Conditions
00:00 64.8 °F 56.7 °F 29.80 in Calm   3.0 mph 75% 0.02 in 0.0 W/m2
00:05 64.9 °F 56.8 °F 29.79 in South 0.9 mph 4.0 mph 75% 0.02 in 0.0 W/m2
00:10 64.9 °F 57.2 °F 29.79 in Calm   1.0 mph 76% 0.02 in 0.0 W/m2
00:21 64.8 °F 57.7 °F 29.78 in SE 4.9 mph 7.0 mph 78% 0.03 in 0.0 W/m2
00:33 64.0 °F 58.5 °F 29.78 in Calm   2.0 mph 82% 0.05 in 0.0 W/m2
00:38 63.7 °F 58.5 °F 29.78 in Calm   2.0 mph 83% 0.05 in 0.0 W/m2
00:43 63.7 °F 59.0 °F 29.78 in Calm     85% 0.05 in 0.0 W/m2
00:48 63.3 °F 59.0 °F 29.78 in Calm     86% 0.05 in 0.0 W/m2
00:54 63.3 °F 59.4 °F 29.78 in Calm     87% 0.05 in 0.0 W/m2
01:04 63.3 °F 60.1 °F 29.78 in Calm     89% 0.05 in 0.0 W/m2
01:09 63.3 °F 60.1 °F 29.78 in Calm     89% 0.05 in 0.0 W/m2
01:18 63.7 °F 59.0 °F 29.77 in Calm   1.0 mph 85% 0.02 in 0.0 W/m2
01:23 63.7 °F 57.4 °F 29.77 in SW 0.9 mph 3.0 mph 80% 0.01 in 0.0 W/m2
01:28 64.0 °F 56.7 °F 29.76 in Calm   4.0 mph 77% 0.00 in 0.0 W/m2
01:33 64.0 °F 57.0 °F 29.76 in ESE 2.0 mph 2.0 mph 78% 0.00 in 0.0 W/m2
01:39 63.9 °F 57.6 °F 29.76 in Calm     80% 0.00 in 0.0 W/m2
01:46 63.7 °F 58.1 °F 29.76 in Calm   1.0 mph 82% 0.00 in 0.0 W/m2
02:00 62.8 °F 57.6 °F 29.76 in East 0.9 mph 1.0 mph 83% 0.00 in 0.0 W/m2
02:05 62.8 °F 57.9 °F 29.76 in Calm     84% 0.00 in 0.0 W/m2
02:11 62.8 °F 58.3 °F 29.75 in Calm     85% 0.00 in 0.0 W/m2
02:16 62.6 °F 58.6 °F 29.75 in Calm     87% 0.00 in 0.0 W/m2
02:21 62.6 °F 58.6 °F 29.75 in Calm     87% 0.00 in 0.0 W/m2
02:26 62.4 °F 58.5 °F 29.75 in Calm   1.0 mph 87% 0.00 in 0.0 W/m2
02:35 62.4 °F 58.5 °F 29.74 in Calm   1.0 mph 87% 0.00 in 0.0 W/m2
02:40 62.4 °F 58.1 °F 29.74 in ESE 0.9 mph 1.0 mph 86% 0.00 in 0.0 W/m2
02:46 62.2 °F 57.7 °F 29.74 in Calm   1.0 mph 85% 0.00 in 0.0 W/m2
02:56 62.1 °F 57.2 °F 29.74 in Calm   3.0 mph 84% 0.00 in 0.0 W/m2
03:01 62.1 °F 57.2 °F 29.74 in Calm     84% 0.00 in 0.0 W/m2
03:06 62.1 °F 57.2 °F 29.74 in Calm   2.0 mph 84% 0.00 in 0.0 W/m2
03:14 61.9 °F 57.0 °F 29.73 in Calm   1.0 mph 84% 0.00 in 0.0 W/m2
03:19 61.7 °F 56.5 °F 29.74 in Calm   2.0 mph 83% 0.00 in 0.0 W/m2
03:24 61.5 °F 56.3 °F 29.73 in Calm   1.0 mph 83% 0.00 in 0.0 W/m2
03:30 61.5 °F 56.3 °F 29.74 in Calm   2.0 mph 83% 0.00 in 0.0 W/m2
03:35 61.3 °F 56.5 °F 29.74 in Calm     84% 0.00 in 0.0 W/m2
03:40 61.2 °F 55.9 °F 29.74 in Calm     83% 0.00 in 0.0 W/m2
03:45 61.2 °F 55.9 °F 29.74 in Calm     83% 0.00 in 0.0 W/m2
03:50 61.0 °F 55.8 °F 29.74 in Calm     83% 0.00 in 0.0 W/m2
03:55 61.0 °F 55.8 °F 29.74 in Calm     83% 0.00 in 0.0 W/m2
04:01 60.8 °F 55.9 °F 29.74 in Calm     84% 0.00 in 0.0 W/m2
04:09 60.6 °F 55.4 °F 29.74 in Calm   1.0 mph 83% 0.00 in 0.0 W/m2
04:14 60.6 °F 55.4 °F 29.73 in Calm   1.0 mph 83% 0.00 in 0.0 W/m2
04:19 60.6 °F 55.4 °F 29.74 in Calm     83% 0.00 in 0.0 W/m2
04:26 60.6 °F 55.4 °F 29.74 in Calm   2.0 mph 83% 0.00 in 0.0 W/m2
04:31 60.6 °F 55.0 °F 29.74 in Calm   1.0 mph 82% 0.00 in 0.0 W/m2
04:37 61.0 °F 56.1 °F 29.74 in Calm     84% 0.00 in 0.0 W/m2
04:48 61.0 °F 56.5 °F 29.75 in Calm   1.0 mph 85% 0.00 in 0.0 W/m2
04:53 61.0 °F 55.8 °F 29.75 in Calm   1.0 mph 83% 0.00 in 0.0 W/m2
04:58 60.8 °F 55.9 °F 29.75 in Calm     84% 0.00 in 0.0 W/m2
05:03 60.6 °F 55.4 °F 29.75 in Calm     83% 0.00 in 0.0 W/m2
05:12 60.6 °F 55.4 °F 29.75 in Calm   1.0 mph 83% 0.00 in 0.0 W/m2
05:17 60.6 °F 55.4 °F 29.76 in Calm     83% 0.00 in 0.0 W/m2
05:31 60.3 °F 55.0 °F 29.76 in Calm     83% 0.00 in 0.0 W/m2
05:37 60.3 °F 55.0 °F 29.76 in East 3.0 mph 3.0 mph 83% 0.00 in 0.0 W/m2
05:42 60.3 °F 55.4 °F 29.77 in Calm     84% 0.00 in 0.0 W/m2
05:47 60.3 °F 55.0 °F 29.77 in Calm     83% 0.00 in 0.0 W/m2
05:57 60.3 °F 55.4 °F 29.77 in Calm     84% 0.00 in 0.0 W/m2
06:02 60.3 °F 54.7 °F 29.78 in Calm     82% 0.00 in 0.0 W/m2
06:07 60.3 °F 54.7 °F 29.78 in Calm   3.0 mph 82% 0.00 in 0.0 W/m2
06:12 60.3 °F 54.7 °F 29.78 in SE 2.0 mph 2.0 mph 82% 0.00 in 0.0 W/m2
06:18 60.3 °F 54.3 °F 29.78 in Calm     81% 0.00 in 0.0 W/m2
06:26 60.3 °F 54.3 °F 29.78 in Calm   1.0 mph 81% 0.00 in 5.0 W/m2
06:31 60.3 °F 53.8 °F 29.78 in Calm     79% 0.00 in 7.0 W/m2
06:36 60.3 °F 53.4 °F 29.78 in Calm   2.0 mph 78% 0.00 in 11.0 W/m2
06:46 60.4 °F 52.9 °F 29.79 in Calm   2.0 mph 76% 0.00 in 14.0 W/m2
06:52 60.8 °F 53.6 °F 29.79 in Calm   1.0 mph 77% 0.00 in 16.0 W/m2
06:57 61.0 °F 54.1 °F 29.79 in ESE 2.0 mph 3.0 mph 78% 0.00 in 18.0 W/m2
07:03 61.3 °F 53.4 °F 29.79 in Calm   1.0 mph 75% 0.00 in 18.0 W/m2
07:08 61.9 °F 54.7 °F 29.79 in ESE 2.0 mph 3.0 mph 77% 0.00 in 19.0 W/m2
07:15 62.2 °F 53.4 °F 29.79 in Calm   2.0 mph 73% 0.00 in 21.0 W/m2
07:20 62.8 °F 53.6 °F 29.79 in ENE 0.9 mph 2.0 mph 72% 0.00 in 23.0 W/m2
07:25 63.1 °F 53.2 °F 29.79 in Calm   4.0 mph 70% 0.00 in 23.0 W/m2
07:35 64.0 °F 54.1 °F 29.79 in Calm   2.0 mph 70% 0.00 in 26.0 W/m2
07:40 64.6 °F 54.5 °F 29.79 in Calm   2.0 mph 70% 0.00 in 26.0 W/m2
07:50 65.5 °F 54.7 °F 29.79 in Calm   1.0 mph 68% 0.00 in 171.0 W/m2
07:56 66.0 °F 55.2 °F 29.79 in Calm   1.0 mph 68% 0.00 in 281.0 W/m2
08:01 66.7 °F 54.7 °F 29.79 in Calm   1.0 mph 65% 0.00 in 334.0 W/m2
08:06 67.8 °F 54.7 °F 29.79 in Calm     63% 0.00 in 367.0 W/m2
08:12 69.1 °F 54.1 °F 29.79 in Calm   1.0 mph 59% 0.00 in 396.0 W/m2
08:17 69.8 °F 52.0 °F 29.79 in Calm   1.0 mph 53% 0.00 in 417.0 W/m2
08:22 70.9 °F 49.6 °F 29.79 in Calm     47% 0.00 in 436.0 W/m2
08:28 72.3 °F 49.8 °F 29.79 in Calm     45% 0.00 in 462.0 W/m2
08:37 75.4 °F 51.3 °F 29.79 in Calm     43% 0.00 in 497.0 W/m2
08:43 75.9 °F 49.8 °F 29.79 in Calm     40% 0.00 in 517.0 W/m2
08:48 76.5 °F 51.1 °F 29.79 in Calm     41% 0.00 in 536.0 W/m2
08:56 78.4 °F 51.4 °F 29.79 in NW 0.9 mph 2.0 mph 39% 0.00 in 568.0 W/m2
09:01 79.2 °F 50.7 °F 29.79 in Calm   1.0 mph 37% 0.00 in 585.0 W/m2
09:10 79.5 °F 50.2 °F 29.79 in Calm     36% 0.00 in 617.0 W/m2
09:15 79.9 °F 52.0 °F 29.79 in SW 2.0 mph 3.0 mph 38% 0.00 in 636.0 W/m2
09:20 80.1 °F 51.4 °F 29.79 in Calm   5.0 mph 37% 0.00 in 654.0 W/m2
09:25 80.2 °F 49.3 °F 29.78 in SW 0.9 mph 1.0 mph 34% 0.00 in 671.0 W/m2
09:30 81.0 °F 50.7 °F 29.78 in Calm   1.0 mph 35% 0.00 in 689.0 W/m2
09:36 81.9 °F 51.4 °F 29.78 in Calm   2.0 mph 35% 0.00 in 707.0 W/m2
09:41 82.4 °F 50.4 °F 29.78 in SSE 2.0 mph 3.0 mph 33% 0.00 in 721.0 W/m2
09:51 82.9 °F 50.0 °F 29.78 in South 2.0 mph 5.0 mph 32% 0.00 in 752.0 W/m2
09:56 83.5 °F 49.6 °F 29.78 in ENE 4.0 mph 5.0 mph 31% 0.00 in 775.0 W/m2
10:02 83.8 °F 50.0 °F 29.78 in Calm   5.0 mph 31% 0.00 in 788.0 W/m2
10:07 84.4 °F 49.6 °F 29.78 in Calm   1.0 mph 30% 0.00 in 803.0 W/m2
10:12 84.4 °F 48.7 °F 29.78 in ESE 2.0 mph 3.0 mph 29% 0.00 in 817.0 W/m2
10:19 84.6 °F 49.6 °F 29.78 in NE 0.9 mph 1.0 mph 30% 0.00 in 842.0 W/m2
10:24 84.6 °F 47.8 °F 29.78 in West 0.9 mph 2.0 mph 28% 0.00 in 856.0 W/m2
10:29 84.6 °F 47.8 °F 29.78 in Calm   1.0 mph 28% 0.00 in 874.0 W/m2
10:34 84.7 °F 48.9 °F 29.78 in East 2.0 mph 3.0 mph 29% 0.00 in 909.0 W/m2
10:39 84.9 °F 48.2 °F 29.78 in NNW 0.9 mph 2.0 mph 28% 0.00 in 928.0 W/m2
10:50 85.8 °F 48.9 °F 29.78 in NNW 4.9 mph 5.0 mph 28% 0.00 in 956.0 W/m2
10:55 86.4 °F 49.5 °F 29.78 in ESE 0.9 mph 4.0 mph 28% 0.00 in 970.0 W/m2
11:00 86.7 °F 47.7 °F 29.78 in Calm   3.0 mph 26% 0.00 in 976.0 W/m2
11:12 85.8 °F 50.7 °F 29.77 in NE 4.0 mph 4.0 mph 30% 0.00 in 997.0 W/m2
11:17 86.4 °F 47.5 °F 29.77 in NNW 2.0 mph 3.0 mph 26% 0.00 in 1041.0 W/m2
11:22 87.1 °F 48.0 °F 29.77 in SE 0.9 mph 2.0 mph 26% 0.00 in 1034.0 W/m2
11:28 87.3 °F 47.1 °F 29.77 in NE 2.0 mph 6.0 mph 25% 0.00 in 1078.0 W/m2
11:38 87.1 °F 46.9 °F 29.76 in NE 2.0 mph 10.0 mph 25% 0.00 in 1100.0 W/m2
11:43 87.3 °F 47.1 °F 29.76 in SE 6.0 mph 6.0 mph 25% 0.00 in 1104.0 W/m2
11:48 87.3 °F 48.2 °F 29.76 in ENE 4.9 mph 7.0 mph 26% 0.00 in 1109.0 W/m2
11:53 87.4 °F 48.4 °F 29.76 in East 4.9 mph 7.0 mph 26% 0.00 in 1116.0 W/m2
11:58 88.0 °F 45.5 °F 29.76 in Calm   3.0 mph 23% 0.00 in 1127.0 W/m2
12:04 88.5 °F 48.2 °F 29.76 in ESE 8.1 mph 8.1 mph 25% 0.00 in 1146.0 W/m2
12:09 89.1 °F 45.3 °F 29.76 in ENE 0.9 mph 9.0 mph 22% 0.00 in 1134.0 W/m2
12:14 89.1 °F 46.4 °F 29.76 in SE 4.0 mph 11.0 mph 23% 0.00 in 244.0 W/m2
12:19 88.7 °F 46.2 °F 29.76 in NNE 0.9 mph 7.0 mph 23% 0.00 in 1167.0 W/m2
12:24 88.5 °F 46.0 °F 29.75 in SE 4.0 mph 10.0 mph 23% 0.00 in 186.0 W/m2
12:29 88.2 °F 46.8 °F 29.76 in East 4.9 mph 12.0 mph 24% 0.00 in 1311.0 W/m2
12:39 88.0 °F 45.5 °F 29.75 in NNE 2.9 mph 4.0 mph 23% 0.00 in 248.0 W/m2
12:44 87.6 °F 45.3 °F 29.75 in ENE 0.9 mph 3.0 mph 23% 0.00 in 304.0 W/m2
12:50 87.6 °F 47.5 °F 29.75 in ENE 2.9 mph 9.0 mph 25% 0.00 in 1311.0 W/m2
12:55 88.3 °F 45.9 °F 29.75 in ESE 2.0 mph 9.0 mph 23% 0.00 in 1259.0 W/m2
13:00 88.3 °F 45.9 °F 29.75 in NNE 2.9 mph 6.0 mph 23% 0.00 in 288.0 W/m2
13:05 88.2 °F 45.7 °F 29.75 in South 0.9 mph 8.0 mph 23% 0.00 in 369.0 W/m2
13:10 88.5 °F 47.1 °F 29.75 in NNE 4.0 mph 11.0 mph 24% 0.00 in 1327.0 W/m2
13:15 88.5 °F 47.1 °F 29.75 in Calm   7.0 mph 24% 0.00 in 304.0 W/m2
13:20 88.2 °F 47.8 °F 29.75 in SE 6.9 mph 8.0 mph 25% 0.00 in 1234.0 W/m2
13:25 88.7 °F 46.2 °F 29.75 in SSE 2.9 mph 8.0 mph 23% 0.00 in 1227.0 W/m2
13:30 89.2 °F 47.7 °F 29.74 in East 0.9 mph 6.0 mph 24% 0.00 in 1288.0 W/m2
13:36 89.2 °F 46.6 °F 29.74 in Calm   4.0 mph 23% 0.00 in 357.0 W/m2
13:41 89.2 °F 47.7 °F 29.74 in NE 2.9 mph 6.0 mph 24% 0.00 in 1288.0 W/m2
13:46 89.2 °F 46.6 °F 29.74 in NNE 2.9 mph 7.0 mph 23% 0.00 in 316.0 W/m2
13:51 89.2 °F 47.7 °F 29.74 in Calm   3.0 mph 24% 0.00 in 366.0 W/m2
13:56 89.1 °F 49.6 °F 29.74 in Calm   3.0 mph 26% 0.00 in 445.0 W/m2
14:01 89.2 °F 46.6 °F 29.73 in NNE 0.9 mph 5.0 mph 23% 0.00 in 585.0 W/m2
14:06 89.2 °F 46.6 °F 29.73 in Calm   2.0 mph 23% 0.00 in 403.0 W/m2
14:11 88.9 °F 47.5 °F 29.73 in South 4.0 mph 8.0 mph 24% 0.00 in 341.0 W/m2
14:16 88.5 °F 46.0 °F 29.72 in East 4.0 mph 11.0 mph 23% 0.00 in 346.0 W/m2
14:22 88.5 °F 47.1 °F 29.72 in NNW 4.0 mph 4.0 mph 24% 0.00 in 373.0 W/m2
14:27 88.5 °F 47.1 °F 29.73 in ENE 2.9 mph 8.0 mph 24% 0.00 in 404.0 W/m2
14:32 89.4 °F 46.8 °F 29.72 in NNE 2.9 mph 7.0 mph 23% 0.00 in 1304.0 W/m2
14:43 90.5 °F 46.4 °F 29.72 in SSE 4.0 mph 8.0 mph 22% 0.00 in 424.0 W/m2
14:49 90.5 °F 47.7 °F 29.72 in ENE 2.0 mph 7.0 mph 23% 0.00 in 1109.0 W/m2
14:58 91.2 °F 47.1 °F 29.71 in SE 10.1 mph 10.1 mph 22% 0.00 in 1021.0 W/m2
15:03 91.6 °F 46.0 °F 29.71 in NNE 4.0 mph 9.0 mph 21% 0.00 in 1016.0 W/m2
15:12 91.8 °F 46.2 °F 29.70 in ESE 4.0 mph 10.0 mph 21% 0.00 in 1065.0 W/m2
15:17 91.6 °F 46.0 °F 29.70 in NNE 0.9 mph 11.0 mph 21% 0.00 in 257.0 W/m2
15:22 90.9 °F 46.8 °F 29.70 in NE 2.0 mph 7.0 mph 22% 0.00 in 181.0 W/m2
15:27 90.5 °F 47.7 °F 29.70 in NE 4.9 mph 14.0 mph 23% 0.00 in 933.0 W/m2
15:32 90.9 °F 46.8 °F 29.70 in East 2.0 mph 9.0 mph 22% 0.00 in 949.0 W/m2
15:43 91.2 °F 47.1 °F 29.68 in SE 4.0 mph 11.0 mph 22% 0.00 in 902.0 W/m2
15:48 91.9 °F 47.7 °F 29.68 in SE 2.0 mph 9.0 mph 22% 0.00 in 889.0 W/m2
15:53 92.1 °F 46.6 °F 29.68 in SSE 2.0 mph 3.0 mph 21% 0.00 in 847.0 W/m2
15:59 92.5 °F 48.0 °F 29.67 in SE 6.0 mph 8.0 mph 22% 0.00 in 844.0 W/m2
16:09 92.1 °F 47.8 °F 29.67 in SSE 2.9 mph 3.0 mph 22% 0.00 in 812.0 W/m2
16:14 92.5 °F 48.0 °F 29.67 in ESE 2.0 mph 5.0 mph 22% 0.00 in 364.0 W/m2
16:19 91.9 °F 46.4 °F 29.67 in NE 0.9 mph 10.0 mph 21% 0.00 in 142.0 W/m2
16:29 90.3 °F 46.4 °F 29.66 in Calm   4.0 mph 22% 0.00 in 142.0 W/m2
16:39 90.9 °F 48.0 °F 29.66 in NE 2.9 mph 4.0 mph 23% 0.00 in 714.0 W/m2
16:45 91.6 °F 47.3 °F 29.66 in ENE 4.0 mph 9.0 mph 22% 0.00 in 148.0 W/m2
16:50 90.9 °F 46.8 °F 29.66 in Calm   10.0 mph 22% 0.00 in 83.0 W/m2
16:55 90.0 °F 47.1 °F 29.66 in ENE 2.0 mph 9.0 mph 23% 0.00 in 49.0 W/m2
17:00 89.1 °F 46.4 °F 29.65 in East 2.0 mph 6.0 mph 23% 0.00 in 40.0 W/m2
17:05 88.2 °F 45.7 °F 29.65 in ENE 0.9 mph 4.0 mph 23% 0.00 in 39.0 W/m2
17:10 87.8 °F 46.6 °F 29.65 in ENE 0.9 mph 5.0 mph 24% 0.00 in 47.0 W/m2
17:15 87.4 °F 45.1 °F 29.65 in Calm   3.0 mph 23% 0.00 in 62.0 W/m2
17:25 87.1 °F 46.9 °F 29.65 in Calm   4.0 mph 25% 0.00 in 125.0 W/m2
17:30 87.3 °F 47.1 °F 29.65 in Calm   1.0 mph 25% 0.00 in 512.0 W/m2
17:38 87.8 °F 47.7 °F 29.64 in WNW 0.9 mph 1.0 mph 25% 0.00 in 155.0 W/m2
17:48 87.6 °F 46.4 °F 29.64 in SE 2.9 mph 4.0 mph 24% 0.00 in 169.0 W/m2
17:53 88.0 °F 46.6 °F 29.64 in ESE 2.0 mph 6.0 mph 24% 0.00 in 434.0 W/m2
17:58 88.3 °F 46.9 °F 29.64 in Calm   5.0 mph 24% 0.00 in 90.0 W/m2
18:03 88.3 °F 46.9 °F 29.64 in SE 0.9 mph 4.0 mph 24% 0.00 in 60.0 W/m2
18:11 88.0 °F 46.6 °F 29.64 in Calm   7.0 mph 24% 0.00 in 40.0 W/m2
18:16 87.4 °F 47.3 °F 29.64 in Calm   5.0 mph 25% 0.00 in 35.0 W/m2
18:21 87.1 °F 45.9 °F 29.64 in ENE 2.0 mph 6.0 mph 24% 0.00 in 44.0 W/m2
18:26 86.7 °F 46.8 °F 29.63 in Calm   1.0 mph 25% 0.00 in 65.0 W/m2
18:32 87.1 °F 46.9 °F 29.64 in Calm   2.0 mph 25% 0.00 in 220.0 W/m2
18:37 87.6 °F 46.4 °F 29.63 in NE 2.0 mph 4.0 mph 24% 0.00 in 200.0 W/m2
18:42 88.2 °F 45.7 °F 29.63 in ENE 2.9 mph 5.0 mph 23% 0.00 in 51.0 W/m2
18:47 88.2 °F 46.8 °F 29.63 in NNE 0.9 mph 2.0 mph 24% 0.00 in 40.0 W/m2
18:52 87.6 °F 46.4 °F 29.63 in NNE 2.0 mph 4.0 mph 24% 0.00 in 23.0 W/m2
18:57 87.3 °F 46.0 °F 29.63 in NE 2.0 mph 2.0 mph 24% 0.00 in 32.0 W/m2
19:02 87.1 °F 46.9 °F 29.64 in Calm   1.0 mph 25% 0.00 in 33.0 W/m2
19:07 86.9 °F 46.8 °F 29.65 in SE 0.9 mph 2.0 mph 25% 0.00 in 39.0 W/m2
19:13 86.2 °F 44.1 °F 29.65 in ENE 11.0 mph 16.0 mph 23% 0.00 in 40.0 W/m2
19:18 84.7 °F 43.9 °F 29.65 in East 8.9 mph 14.0 mph 24% 0.00 in 28.0 W/m2
19:23 84.0 °F 44.4 °F 29.65 in SE 2.9 mph 16.0 mph 25% 0.00 in 18.0 W/m2
19:28 83.3 °F 44.8 °F 29.65 in East 4.9 mph 14.0 mph 26% 0.00 in 11.0 W/m2
19:33 82.8 °F 44.4 °F 29.65 in North 0.9 mph 3.0 mph 26% 0.00 in 5.0 W/m2
19:43 82.0 °F 44.8 °F 29.66 in Calm   1.0 mph 27% 0.00 in 0.0 W/m2
19:49 81.7 °F 49.8 °F 29.67 in WSW 2.9 mph 7.0 mph 33% 0.00 in 0.0 W/m2
19:57 80.8 °F 51.3 °F 29.67 in Calm   5.0 mph 36% 0.00 in 0.0 W/m2
20:02 80.2 °F 50.9 °F 29.67 in WSW 4.9 mph 7.0 mph 36% 0.00 in 0.0 W/m2
20:08 79.9 °F 51.3 °F 29.67 in WSW 2.9 mph 4.0 mph 37% 0.00 in 0.0 W/m2
20:13 79.5 °F 50.2 °F 29.67 in Calm   2.0 mph 36% 0.00 in 0.0 W/m2
20:18 79.2 °F 50.7 °F 29.67 in Calm     37% 0.00 in 0.0 W/m2
20:23 79.0 °F 51.3 °F 29.67 in Calm   2.0 mph 38% 0.00 in 0.0 W/m2
20:33 78.1 °F 51.8 °F 29.67 in NNW 2.0 mph 5.0 mph 40% 0.00 in 0.0 W/m2
20:40 77.5 °F 52.0 °F 29.68 in Calm   2.0 mph 41% 0.00 in 0.0 W/m2
20:45 77.2 °F 52.3 °F 29.67 in Calm   1.0 mph 42% 0.00 in 0.0 W/m2
20:50 76.8 °F 52.0 °F 29.68 in NW 4.0 mph 4.0 mph 42% 0.00 in 0.0 W/m2
20:55 76.5 °F 51.6 °F 29.68 in Calm     42% 0.00 in 0.0 W/m2
21:03 76.3 °F 51.4 °F 29.68 in Calm   3.0 mph 42% 0.00 in 0.0 W/m2
21:08 76.1 °F 52.0 °F 29.68 in Calm   1.0 mph 43% 0.00 in 0.0 W/m2
21:13 76.1 °F 56.7 °F 29.68 in Calm     51% 0.00 in 0.0 W/m2
21:18 75.7 °F 56.3 °F 29.69 in Calm     51% 0.00 in 0.0 W/m2
21:23 75.2 °F 57.4 °F 29.68 in SSW 2.9 mph 3.0 mph 54% 0.00 in 0.0 W/m2
21:37 73.9 °F 57.2 °F 29.69 in Calm   1.0 mph 56% 0.00 in 0.0 W/m2
21:43 73.6 °F 56.8 °F 29.69 in Calm     56% 0.00 in 0.0 W/m2
21:48 73.2 °F 56.1 °F 29.69 in Calm   2.0 mph 55% 0.00 in 0.0 W/m2
21:53 72.9 °F 55.8 °F 29.70 in Calm   2.0 mph 55% 0.00 in 0.0 W/m2
21:58 72.7 °F 55.6 °F 29.69 in Calm   2.0 mph 55% 0.00 in 0.0 W/m2
22:04 72.3 °F 55.8 °F 29.70 in ENE 0.9 mph 1.0 mph 56% 0.00 in 0.0 W/m2
22:09 72.0 °F 55.4 °F 29.70 in Calm     56% 0.00 in 0.0 W/m2
22:14 72.0 °F 55.4 °F 29.70 in Calm   1.0 mph 56% 0.00 in 0.0 W/m2
22:22 71.4 °F 54.9 °F 29.71 in ENE 0.9 mph 3.0 mph 56% 0.00 in 0.0 W/m2
22:27 71.2 °F 54.7 °F 29.71 in Calm     56% 0.00 in 0.0 W/m2
22:33 71.1 °F 55.0 °F 29.71 in Calm     57% 0.00 in 0.0 W/m2
22:38 71.1 °F 55.0 °F 29.71 in Calm     57% 0.00 in 0.0 W/m2
22:43 70.9 °F 55.4 °F 29.71 in Calm     58% 0.00 in 0.0 W/m2
22:48 70.7 °F 55.6 °F 29.71 in Calm     59% 0.00 in 0.0 W/m2
22:53 70.5 °F 55.0 °F 29.72 in Calm     58% 0.00 in 0.0 W/m2
22:58 70.3 °F 55.8 °F 29.72 in Calm     60% 0.00 in 0.0 W/m2
23:03 70.3 °F 55.8 °F 29.72 in Calm     60% 0.00 in 0.0 W/m2
23:14 70.2 °F 56.1 °F 29.72 in Calm     61% 0.00 in 0.0 W/m2
23:30 69.6 °F 55.6 °F 29.72 in Calm     61% 0.00 in 0.0 W/m2
23:35 69.4 °F 54.9 °F 29.72 in Calm     60% 0.00 in 0.0 W/m2
23:40 69.4 °F 54.9 °F 29.72 in Calm     60% 0.00 in 0.0 W/m2
23:45 69.3 °F 54.3 °F 29.71 in Calm     59% 0.00 in 0.0 W/m2
23:51 69.3 °F 55.8 °F 29.72 in Calm     62% 0.00 in 0.0 W/m2
23:57 69.3 °F 55.2 °F 29.72 in Calm     61% 0.00 in 0.0 W/m2
Olympia, Windhoek, Namibia
Compliments of Weather Underground - 3 mb